createdAt,value
2023-07-21T00:00:54.154Z,17.67
2023-07-21T00:08:15.548Z,17.58
2023-07-21T00:10:48.999Z,17.53
2023-07-21T02:04:52.405Z,16.59
2023-07-21T02:07:25.700Z,16.56
2023-07-21T02:25:05.362Z,16.71
2023-07-21T02:27:39.901Z,16.72
2023-07-21T02:30:13.227Z,16.71
2023-07-21T02:32:46.329Z,16.63
2023-07-21T02:35:18.945Z,16.77
2023-07-21T02:37:52.826Z,16.79
2023-07-21T02:40:27.532Z,16.81
2023-07-21T02:43:01.228Z,16.79
2023-07-21T02:55:31.329Z,16.65
2023-07-21T02:58:04.578Z,16.66
2023-07-21T03:00:41.882Z,16.69
2023-07-21T03:03:26.877Z,16.72
2023-07-21T03:06:08.396Z,16.73
2023-07-21T03:08:42.110Z,16.74
2023-07-21T03:11:19.308Z,16.71
2023-07-21T03:14:08.403Z,16.78
2023-07-21T03:16:42.390Z,16.82
2023-07-21T03:19:15.897Z,16.86
2023-07-21T03:21:51.369Z,16.86
2023-07-21T03:24:24.332Z,16.87
2023-07-21T03:26:58.615Z,16.89
2023-07-21T03:29:32.975Z,16.91
2023-07-21T03:32:06.545Z,16.92
2023-07-21T03:34:40.248Z,16.94
2023-07-21T03:37:14.853Z,16.96
2023-07-21T03:39:48.337Z,17.00
2023-07-21T03:42:23.495Z,17.03
2023-07-21T03:44:57.149Z,17.07
2023-07-21T03:47:32.056Z,17.09
2023-07-21T03:50:09.648Z,17.12
2023-07-21T03:52:43.435Z,17.16
2023-07-21T03:55:20.608Z,17.19
2023-07-21T03:57:55.625Z,17.24
2023-07-21T04:00:30.864Z,17.26
2023-07-21T04:03:03.562Z,17.27
2023-07-21T04:05:37.477Z,17.35
2023-07-21T04:08:10.444Z,17.36
2023-07-21T04:10:43.888Z,17.44
2023-07-21T04:13:20.086Z,17.49
2023-07-21T04:15:52.938Z,17.54
2023-07-21T04:18:26.890Z,17.61
2023-07-21T04:20:59.526Z,17.70
2023-07-21T04:23:32.896Z,17.79
2023-07-21T04:26:08.165Z,17.88
2023-07-21T04:28:43.213Z,17.97
2023-07-21T04:31:18.152Z,18.06
2023-07-21T04:34:04.012Z,18.20
2023-07-21T04:36:39.063Z,18.25
2023-07-21T04:39:26.310Z,18.25
2023-07-21T04:41:59.508Z,18.30
2023-07-21T04:44:34.738Z,18.28
2023-07-21T04:47:08.223Z,18.38
2023-07-21T04:49:49.953Z,18.44
2023-07-21T04:52:23.416Z,18.46
2023-07-21T04:54:56.803Z,18.52
2023-07-21T04:57:29.720Z,18.60
2023-07-21T05:00:13.103Z,18.63
2023-07-21T05:02:46.708Z,18.62
2023-07-21T05:05:19.691Z,18.07
2023-07-21T05:07:57.720Z,18.71
2023-07-21T05:10:31.461Z,18.74
2023-07-21T05:13:07.439Z,19.02
2023-07-21T05:15:57.902Z,19.19
2023-07-21T05:18:42.874Z,19.42
2023-07-21T05:21:51.063Z,19.56
2023-07-21T05:24:43.336Z,19.86
2023-07-21T05:27:18.614Z,20.06
2023-07-21T05:29:56.837Z,20.44
2023-07-21T05:32:31.892Z,20.86
2023-07-21T05:35:15.310Z,21.23
2023-07-21T05:37:58.212Z,21.50
2023-07-21T05:40:31.909Z,21.86
2023-07-21T05:43:06.553Z,22.00
2023-07-21T05:45:41.059Z,21.79
2023-07-21T05:48:18.199Z,21.58
2023-07-21T05:50:54.118Z,21.35
2023-07-21T05:53:27.085Z,21.21
2023-07-21T05:56:00.669Z,20.99
2023-07-21T05:58:51.143Z,20.73
2023-07-21T06:01:24.954Z,20.79
2023-07-21T06:03:59.128Z,20.97
2023-07-21T06:06:32.748Z,21.17
2023-07-21T06:09:44.439Z,21.16
2023-07-21T06:12:37.327Z,21.09
2023-07-21T06:15:35.597Z,20.98
2023-07-21T06:18:12.519Z,20.83
2023-07-21T06:20:47.115Z,20.66
2023-07-21T06:23:20.410Z,20.44
2023-07-21T06:25:55.154Z,20.52
2023-07-21T06:28:28.188Z,20.49
2023-07-21T06:31:01.138Z,20.45
2023-07-21T06:33:53.024Z,20.72
2023-07-21T06:36:44.596Z,21.02
2023-07-21T06:39:40.909Z,21.37
2023-07-21T06:42:27.314Z,21.67
2023-07-21T06:45:19.452Z,21.99
2023-07-21T06:48:03.722Z,22.16
2023-07-21T06:50:58.448Z,22.11
2023-07-21T06:53:32.937Z,22.11
2023-07-21T06:56:06.079Z,22.16
2023-07-21T06:58:38.902Z,22.26
2023-07-21T07:01:12.288Z,22.36
2023-07-21T07:03:48.086Z,22.34
2023-07-21T07:06:21.069Z,22.20
2023-07-21T07:08:55.945Z,21.99
2023-07-21T07:11:28.962Z,21.82
2023-07-21T07:14:02.507Z,21.88
2023-07-21T07:16:38.302Z,21.89
2023-07-21T07:19:11.479Z,22.06
2023-07-21T07:21:44.136Z,22.13
2023-07-21T07:24:22.182Z,22.34
2023-07-21T07:26:55.477Z,22.43
2023-07-21T07:29:28.689Z,22.52
2023-07-21T07:32:01.517Z,22.56
2023-07-21T07:34:34.659Z,22.51
2023-07-21T07:37:08.033Z,22.50
2023-07-21T07:39:42.689Z,22.47
2023-07-21T07:42:15.246Z,22.44
2023-07-21T07:44:49.570Z,22.46
2023-07-21T07:47:22.165Z,22.51
2023-07-21T07:49:55.406Z,22.55
2023-07-21T07:52:28.021Z,22.53
2023-07-21T07:55:02.427Z,22.43
2023-07-21T07:57:38.027Z,22.32
2023-07-21T08:00:15.707Z,22.25
2023-07-21T08:02:49.039Z,22.28
2023-07-21T08:05:22.546Z,22.26
2023-07-21T08:07:55.514Z,22.23
2023-07-21T08:10:30.557Z,22.23
2023-07-21T08:13:07.809Z,22.21
2023-07-21T08:15:41.760Z,22.14
2023-07-21T08:18:14.902Z,22.06
2023-07-21T08:20:51.290Z,22.00
2023-07-21T08:23:30.151Z,22.01
2023-07-21T08:26:05.077Z,22.00
2023-07-21T08:28:37.643Z,21.94
2023-07-21T08:31:11.183Z,21.87
2023-07-21T08:33:43.715Z,21.82
2023-07-21T08:36:16.623Z,21.75
2023-07-21T08:38:51.394Z,21.73
2023-07-21T08:41:27.028Z,21.68
2023-07-21T08:44:02.376Z,21.68
2023-07-21T08:46:35.607Z,21.68
2023-07-21T08:49:09.531Z,21.64
2023-07-21T08:51:42.105Z,21.71
2023-07-21T08:54:15.151Z,21.70
2023-07-21T08:56:49.295Z,21.65
2023-07-21T08:59:22.708Z,21.62
2023-07-21T09:01:55.729Z,21.63
2023-07-21T09:04:29.002Z,21.67
2023-07-21T09:07:03.903Z,21.76
2023-07-21T09:09:36.570Z,21.86
2023-07-21T09:12:12.976Z,21.96
2023-07-21T09:14:46.598Z,22.06
2023-07-21T09:17:19.574Z,22.13
2023-07-21T09:19:56.882Z,22.11
2023-07-21T09:22:29.724Z,22.25
2023-07-21T09:25:03.158Z,22.31
2023-07-21T09:27:41.304Z,22.31
2023-07-21T09:30:13.909Z,22.33
2023-07-21T09:32:46.856Z,22.28
2023-07-21T09:35:19.897Z,22.30
2023-07-21T09:37:53.829Z,22.27
2023-07-21T09:40:29.968Z,22.27
2023-07-21T09:43:04.635Z,22.23
2023-07-21T09:45:37.934Z,22.21
2023-07-21T09:48:12.063Z,22.19
2023-07-21T09:50:46.125Z,22.01
2023-07-21T09:53:22.896Z,22.17
2023-07-21T09:55:57.650Z,22.26
2023-07-21T09:58:35.266Z,22.26
2023-07-21T10:01:11.203Z,22.25
2023-07-21T10:03:45.720Z,22.25
2023-07-21T10:06:19.233Z,22.20
2023-07-21T10:08:53.221Z,22.12
2023-07-21T10:11:26.665Z,22.09
2023-07-21T10:14:00.907Z,22.05
2023-07-21T10:16:34.071Z,22.04
2023-07-21T10:19:12.129Z,22.04
2023-07-21T10:21:52.544Z,21.98
2023-07-21T10:24:28.961Z,22.05
2023-07-21T10:27:04.221Z,22.07
2023-07-21T10:29:39.480Z,22.18
2023-07-21T10:32:12.900Z,22.25
2023-07-21T10:34:45.815Z,22.32
2023-07-21T10:37:19.024Z,22.41
2023-07-21T10:39:55.606Z,22.48
2023-07-21T10:42:28.285Z,22.60
2023-07-21T10:45:09.433Z,22.65
2023-07-21T10:47:42.777Z,22.67
2023-07-21T10:50:15.624Z,22.67
2023-07-21T10:52:49.128Z,22.64
2023-07-21T10:55:22.156Z,22.76
2023-07-21T10:57:54.920Z,22.80
2023-07-21T11:00:30.487Z,22.85
2023-07-21T11:03:03.571Z,22.88
2023-07-21T11:05:37.689Z,22.91
2023-07-21T11:08:14.496Z,22.95
2023-07-21T11:10:47.692Z,22.98
2023-07-21T11:13:21.012Z,23.02
2023-07-21T11:15:56.403Z,23.08
2023-07-21T11:18:29.904Z,23.16
2023-07-21T11:21:02.809Z,23.23
2023-07-21T11:23:35.749Z,23.29
2023-07-21T11:26:11.758Z,23.35
2023-07-21T11:28:44.921Z,23.36
2023-07-21T11:31:20.189Z,23.35
2023-07-21T11:33:53.069Z,23.26
2023-07-21T11:36:29.179Z,23.13
2023-07-21T11:39:05.839Z,22.98
2023-07-21T11:41:50.077Z,22.81
2023-07-21T11:44:26.743Z,22.61
2023-07-21T11:47:08.117Z,22.36
2023-07-21T11:49:42.160Z,21.96
2023-07-21T11:52:27.020Z,21.50
2023-07-21T11:55:01.937Z,21.11
2023-07-21T11:57:36.172Z,20.95
2023-07-21T12:00:13.157Z,20.90
2023-07-21T12:02:47.382Z,20.95
2023-07-21T12:05:20.347Z,21.05
2023-07-21T12:07:56.536Z,21.14
2023-07-21T12:10:29.085Z,21.25
2023-07-21T12:13:05.649Z,21.34
2023-07-21T12:15:38.987Z,21.38
2023-07-21T12:18:13.630Z,21.54
2023-07-21T12:20:46.516Z,21.60
2023-07-21T12:23:19.903Z,21.64
2023-07-21T12:25:53.613Z,21.61
2023-07-21T12:28:27.110Z,21.63
2023-07-21T12:30:59.915Z,21.56
2023-07-21T12:33:36.502Z,21.62
2023-07-21T12:36:11.107Z,21.62
2023-07-21T12:38:43.774Z,21.60
2023-07-21T12:41:18.811Z,21.58
2023-07-21T12:43:52.250Z,21.60
2023-07-21T12:46:25.870Z,21.60
2023-07-21T12:49:00.216Z,21.57
2023-07-21T12:51:33.044Z,21.63
2023-07-21T12:54:06.210Z,21.67
2023-07-21T12:56:38.966Z,21.71
2023-07-21T12:59:11.990Z,21.73
2023-07-21T13:01:45.151Z,21.76
2023-07-21T13:04:21.287Z,21.88
2023-07-21T13:06:55.618Z,21.93
2023-07-21T13:09:28.291Z,21.93
2023-07-21T13:12:01.372Z,21.96
2023-07-21T13:14:34.197Z,21.93
2023-07-21T13:17:08.245Z,21.92
2023-07-21T13:19:42.565Z,21.94
2023-07-21T13:22:15.786Z,21.95
2023-07-21T13:24:48.680Z,21.89
2023-07-21T13:27:22.597Z,21.93
2023-07-21T13:29:55.798Z,21.95
2023-07-21T13:32:28.346Z,21.98
2023-07-21T13:35:03.391Z,22.01
2023-07-21T13:37:37.018Z,22.04
2023-07-21T13:40:10.314Z,22.02
2023-07-21T13:42:42.898Z,22.07
2023-07-21T13:45:16.014Z,22.10
2023-07-21T13:47:49.049Z,22.05
2023-07-21T13:50:23.354Z,22.08
2023-07-21T13:52:55.891Z,22.08
2023-07-21T13:55:29.360Z,22.05
2023-07-21T13:58:02.959Z,22.04
2023-07-21T14:00:37.175Z,22.01
2023-07-21T14:03:09.861Z,22.02
2023-07-21T14:05:44.387Z,22.03
2023-07-21T14:08:17.126Z,22.04
2023-07-21T14:10:50.523Z,22.04
2023-07-21T14:13:23.205Z,22.07
2023-07-21T14:15:59.031Z,22.01
2023-07-21T14:18:35.089Z,22.06
2023-07-21T14:21:09.838Z,22.05
2023-07-21T14:23:42.772Z,21.88
2023-07-21T14:26:15.896Z,22.00
2023-07-21T14:28:48.942Z,22.01
2023-07-21T14:31:22.556Z,22.00
2023-07-21T14:33:55.435Z,21.96
2023-07-21T14:36:30.769Z,21.93
2023-07-21T14:39:06.333Z,21.92
2023-07-21T14:41:42.550Z,21.76
2023-07-21T14:44:16.444Z,21.89
2023-07-21T14:46:49.627Z,21.88
2023-07-21T14:49:23.158Z,21.86
2023-07-21T14:51:59.243Z,21.90
2023-07-21T14:54:32.197Z,21.90
2023-07-21T14:57:05.412Z,21.89
2023-07-21T14:59:38.441Z,21.94
2023-07-21T15:02:13.532Z,21.92
2023-07-21T15:04:47.000Z,21.95
2023-07-21T15:07:21.200Z,21.92
2023-07-21T15:09:54.166Z,21.93
2023-07-21T15:12:27.998Z,21.90
2023-07-21T15:15:01.322Z,21.88
2023-07-21T15:17:37.150Z,21.88
2023-07-21T15:20:18.114Z,21.83
2023-07-21T15:22:52.429Z,21.79
2023-07-21T15:25:26.004Z,21.79
2023-07-21T15:27:58.751Z,21.78
2023-07-21T15:30:32.340Z,21.79
2023-07-21T15:33:05.739Z,21.81
2023-07-21T15:35:45.915Z,21.89
2023-07-21T15:38:20.342Z,21.95
2023-07-21T15:40:53.512Z,21.96
2023-07-21T15:43:27.866Z,22.09
2023-07-21T15:46:00.602Z,22.13
2023-07-21T15:48:33.923Z,22.13
2023-07-21T15:51:06.994Z,22.06
2023-07-21T15:53:41.398Z,22.12
2023-07-21T15:56:14.448Z,22.07
2023-07-21T15:58:47.177Z,22.05
2023-07-21T16:01:19.748Z,22.00
2023-07-21T16:03:53.629Z,21.99
2023-07-21T16:06:26.556Z,21.92
2023-07-21T16:09:00.584Z,21.91
2023-07-21T16:11:33.584Z,21.83
2023-07-21T16:14:06.483Z,21.80
2023-07-21T16:16:40.245Z,21.76
2023-07-21T16:19:12.885Z,21.72
2023-07-21T16:21:46.497Z,21.68
2023-07-21T16:24:20.927Z,21.62
2023-07-21T16:26:54.214Z,21.61
2023-07-21T16:29:26.727Z,21.56
2023-07-21T16:31:59.816Z,21.56
2023-07-21T16:34:36.321Z,21.54
2023-07-21T16:37:11.133Z,21.49
2023-07-21T16:39:45.564Z,21.46
2023-07-21T16:42:19.581Z,21.42
2023-07-21T16:44:52.089Z,21.38
2023-07-21T16:47:25.238Z,21.34
2023-07-21T16:49:58.203Z,21.30
2023-07-21T16:52:31.123Z,21.17
2023-07-21T16:55:08.859Z,21.19
2023-07-21T16:57:41.740Z,21.19
2023-07-21T17:00:15.299Z,21.16
2023-07-21T17:02:48.508Z,21.13
2023-07-21T17:05:31.606Z,21.11
2023-07-21T17:08:06.015Z,21.08
2023-07-21T17:10:40.311Z,21.11
2023-07-21T17:13:13.184Z,21.08
2023-07-21T17:15:46.049Z,21.10
2023-07-21T17:18:19.449Z,21.07
2023-07-21T17:20:52.085Z,21.01
2023-07-21T17:23:25.359Z,21.04
2023-07-21T17:26:03.945Z,20.96
2023-07-21T17:28:37.410Z,20.96
2023-07-21T17:31:10.142Z,20.91
2023-07-21T17:33:43.565Z,20.85
2023-07-21T17:36:16.525Z,20.80
2023-07-21T17:38:49.261Z,20.72
2023-07-21T17:41:23.874Z,20.68
2023-07-21T17:43:58.109Z,20.65
2023-07-21T17:46:31.143Z,20.58
2023-07-21T17:49:04.565Z,20.57
2023-07-21T17:51:37.354Z,20.40
2023-07-21T17:54:10.367Z,20.52
2023-07-21T17:56:46.617Z,20.50
2023-07-21T17:59:22.784Z,20.48
2023-07-21T18:01:56.082Z,20.47
2023-07-21T18:04:28.839Z,20.41
2023-07-21T18:07:02.184Z,20.39
2023-07-21T18:09:35.316Z,20.32
2023-07-21T18:12:09.698Z,20.32
2023-07-21T18:14:43.003Z,20.29
2023-07-21T18:17:15.575Z,20.26
2023-07-21T18:19:52.071Z,20.23
2023-07-21T18:22:25.452Z,20.16
2023-07-21T18:25:00.149Z,20.11
2023-07-21T18:27:34.219Z,20.13
2023-07-21T18:30:10.948Z,20.10
2023-07-21T18:32:43.962Z,20.07
2023-07-21T18:35:17.891Z,20.00
2023-07-21T18:37:50.879Z,19.98
2023-07-21T18:40:26.771Z,19.93
2023-07-21T18:43:01.166Z,19.89
2023-07-21T18:45:34.305Z,19.84
2023-07-21T18:48:07.598Z,19.76
2023-07-21T18:50:42.380Z,19.74
2023-07-21T18:53:16.941Z,19.67
2023-07-21T18:55:50.423Z,19.54
2023-07-21T18:58:25.824Z,19.52
2023-07-21T19:01:00.009Z,19.44
2023-07-21T19:03:32.931Z,19.37
2023-07-21T19:06:07.941Z,19.20
2023-07-21T19:08:40.591Z,19.12
2023-07-21T19:11:17.660Z,19.17
2023-07-21T19:13:53.113Z,19.10
2023-07-21T19:16:31.383Z,19.02
2023-07-21T19:19:05.533Z,19.00
2023-07-21T19:21:38.391Z,18.96
2023-07-21T19:24:11.314Z,18.89
2023-07-21T19:26:44.842Z,18.80
2023-07-21T19:29:19.069Z,18.72
2023-07-21T19:31:53.864Z,18.71
2023-07-21T19:34:29.388Z,18.65
2023-07-21T19:37:02.652Z,18.60
2023-07-21T19:39:35.579Z,18.55
2023-07-21T19:42:08.645Z,18.39
2023-07-21T19:44:42.976Z,18.43
2023-07-21T19:47:16.348Z,18.37
2023-07-21T19:49:49.069Z,18.31
2023-07-21T19:52:22.019Z,18.27
2023-07-21T19:54:54.536Z,18.13
2023-07-21T19:57:28.020Z,18.22
2023-07-21T20:00:02.418Z,18.23
2023-07-21T20:02:38.290Z,18.11
2023-07-21T20:05:11.723Z,18.23
2023-07-21T20:07:44.745Z,18.16
2023-07-21T20:10:17.797Z,18.24
2023-07-21T20:12:51.734Z,18.24
2023-07-21T20:15:26.728Z,18.24
2023-07-21T20:17:59.935Z,18.23
2023-07-21T20:20:33.876Z,18.20
2023-07-21T20:23:06.642Z,18.24
2023-07-21T20:25:41.071Z,18.19
2023-07-21T20:28:17.395Z,18.26
2023-07-21T20:30:52.265Z,18.26
2023-07-21T20:33:25.188Z,18.26
2023-07-21T20:35:58.783Z,18.26
2023-07-21T20:38:32.803Z,18.28
2023-07-21T20:41:10.256Z,18.28
2023-07-21T20:43:43.277Z,18.26
2023-07-21T20:46:17.278Z,18.12
2023-07-21T20:48:50.312Z,18.19
2023-07-21T20:51:23.293Z,18.26
2023-07-21T20:53:56.570Z,18.26
2023-07-21T20:56:29.551Z,18.13
2023-07-21T20:59:03.193Z,18.20
2023-07-21T21:01:37.190Z,18.18
2023-07-21T21:04:14.720Z,18.18
2023-07-21T21:06:47.470Z,18.18
2023-07-21T21:09:20.444Z,18.18
2023-07-21T21:11:53.313Z,17.97
2023-07-21T21:14:26.309Z,18.20
2023-07-21T21:17:00.337Z,18.22
2023-07-21T21:19:35.065Z,18.18
2023-07-21T21:22:08.109Z,18.24
2023-07-21T21:24:41.364Z,18.21
2023-07-21T21:27:14.221Z,18.15
2023-07-21T21:29:47.220Z,18.26
2023-07-21T21:32:21.817Z,18.28
2023-07-21T21:34:54.725Z,18.29
2023-07-21T21:37:27.739Z,18.01
2023-07-21T21:40:00.730Z,18.27
2023-07-21T21:42:37.325Z,18.24
2023-07-21T21:45:10.822Z,18.15
2023-07-21T21:47:45.170Z,18.15
2023-07-21T21:50:17.840Z,18.13
2023-07-21T21:52:51.035Z,18.08
2023-07-21T21:55:23.729Z,18.05
2023-07-21T21:57:56.966Z,18.01
2023-07-21T22:00:29.517Z,17.97
2023-07-21T22:03:04.645Z,17.93
2023-07-21T22:05:37.791Z,17.84
2023-07-21T22:08:10.823Z,17.84
2023-07-21T22:10:43.638Z,17.80
2023-07-21T22:13:16.202Z,17.55
2023-07-21T22:15:49.425Z,17.68
2023-07-21T22:18:23.441Z,17.67
2023-07-21T22:20:56.485Z,17.62
2023-07-21T22:23:29.837Z,17.60
2023-07-21T22:26:06.566Z,17.57
2023-07-21T22:28:40.043Z,17.51
2023-07-21T22:31:14.236Z,17.51
2023-07-21T22:33:48.871Z,17.48
2023-07-21T22:36:23.424Z,17.28
2023-07-21T22:38:56.472Z,17.42
2023-07-21T22:41:30.783Z,17.33
2023-07-21T22:44:03.511Z,17.33
2023-07-21T22:46:36.864Z,17.29
2023-07-21T22:49:13.891Z,17.21
2023-07-21T22:51:46.418Z,17.23
2023-07-21T22:54:19.546Z,17.04
2023-07-21T22:56:52.551Z,17.16
2023-07-21T22:59:25.693Z,17.13
2023-07-21T23:01:58.289Z,17.10
2023-07-21T23:04:32.741Z,17.04
2023-07-21T23:07:06.211Z,16.99
2023-07-21T23:09:39.398Z,16.98
2023-07-21T23:12:11.920Z,16.95
2023-07-21T23:14:45.236Z,16.93
2023-07-21T23:17:17.834Z,16.89
2023-07-21T23:19:52.216Z,16.83
2023-07-21T23:22:24.891Z,16.71
2023-07-21T23:24:58.316Z,16.29
2023-07-21T23:27:32.499Z,16.71
2023-07-21T23:30:06.927Z,16.64
2023-07-21T23:32:40.053Z,16.64
2023-07-21T23:35:14.836Z,16.60
2023-07-21T23:37:48.072Z,16.58
2023-07-21T23:40:20.979Z,16.55
2023-07-21T23:42:54.028Z,16.54
2023-07-21T23:45:27.353Z,16.52
2023-07-21T23:47:59.987Z,16.50
2023-07-21T23:50:34.947Z,16.45
2023-07-21T23:53:07.756Z,16.43
2023-07-21T23:55:41.168Z,16.41
2023-07-21T23:58:16.415Z,16.28
